Terminal Aerodrome Forecast
Issued by NWS Denver/Boulder, CO

Home | Current Version | Previous Version | Text Only | Print | Product List | Glossary On
Versions: 1 2 3 4 5 6 7 8 9 10 11 12 13 14 15 16 17 18 19 20 21 22 23 24 25 26 27 28 29 30 31 32 33 34 35 36 37 38 39 40 41 42 43 44 45 46 47 48 49 50
000
FTUS45 KBOU 141304 AAA
TAFDEN
TAF AMD
KDEN 141304Z 1413/1518 26007KT P6SM FEW170 SCT220
     FM141600 02009KT P6SM FEW070 SCT150 SCT200
     FM141900 06010KT P6SM SCT070 BKN120 PROB30 1422/1502 VRB15G30KT
      -TSRA BKN070CB
     FM150300 14008KT P6SM SCT070 BKN120
     FM150700 20011KT P6SM SCT070 BKN120
     FM151600 30008KT P6SM SCT120 BKN200=

USA.gov is the U.S. government's official web portal to all federal, state and local government web resources and services.